Time;durP1;ratioP1;P1;durP2;ratioP2;P2;SDS_P1;SDS_P2;PMS_P1;PMS_P2;Temp;Humidity;BMP_temperature;BMP_pressure;BME280_temperature;BME280_humidity;BME280_pressure;Samples;Min_cycle;Max_cycle;Signal;HPM_P1;HPM_P2
2022/01/21 00:01:11;;;;;;;1.77;1.50;;;;;;;;;;5032240;28;20032;-68
2022/01/21 00:03:38;;;;;;;1.75;1.10;;;;;;;;;;5030476;28;20112;-68
2022/01/21 00:06:06;;;;;;;3.05;1.52;;;;;;;;;;5032087;28;20072;-68
2022/01/21 00:08:36;;;;;;;2.00;1.20;;;;;;;;;;5031921;28;20041;-69
2022/01/21 00:11:02;;;;;;;1.48;1.15;;;;;;;;;;5031955;28;20024;-68
2022/01/21 00:13:34;;;;;;;1.90;1.27;;;;;;;;;;5032363;28;20492;-69
2022/01/21 00:16:11;;;;;;;2.50;1.40;;;;;;;;;;5032152;28;20021;-69
2022/01/21 00:18:38;;;;;;;2.25;1.35;;;;;;;;;;5031953;28;20047;-68
2022/01/21 00:32:06;;;;;;;1.30;1.00;;;;;;;;;;5034359;28;20574;-68
2022/01/21 00:34:32;;;;;;;2.03;1.40;;;;;;;;;;5036005;28;20448;-68
2022/01/21 00:36:58;;;;;;;1.27;0.93;;;;;;;;;;5035149;28;20063;-68
2022/01/21 00:39:27;;;;;;;1.73;1.30;;;;;;;;;;5046868;28;20087;-68
2022/01/21 00:42:30;;;;;;;2.08;1.25;;;;;;;;;;5044617;28;20033;-69
2022/01/21 00:44:42;;;;;;;2.05;1.23;;;;;;;;;;5035144;28;20112;-69
2022/01/21 00:47:09;;;;;;;1.83;1.20;;;;;;;;;;5035312;28;20431;-68
2022/01/21 00:49:35;;;;;;;2.20;1.13;;;;;;;;;;5035829;28;20503;-68
2022/01/21 00:52:01;;;;;;;1.45;0.95;;;;;;;;;;5036467;28;20493;-68
2022/01/21 00:54:27;;;;;;;1.40;1.00;;;;;;;;;;5055656;28;20021;-68
2022/01/21 00:56:53;;;;;;;1.90;1.20;;;;;;;;;;5055070;28;20024;-68
2022/01/21 00:59:19;;;;;;;2.15;1.27;;;;;;;;;;5054921;28;20052;-68
2022/01/21 01:01:45;;;;;;;1.83;1.20;;;;;;;;;;5054284;28;20531;-68
2022/01/21 01:04:12;;;;;;;1.77;1.10;;;;;;;;;;5055110;28;20036;-68
2022/01/21 01:06:38;;;;;;;1.60;0.98;;;;;;;;;;5054731;28;20025;-68
2022/01/21 01:09:04;;;;;;;1.08;0.88;;;;;;;;;;5054820;28;20167;-68
2022/01/21 01:20:07;;;;;;;1.65;0.93;;;;;;;;;;5054870;28;20099;-70
2022/01/21 01:22:47;;;;;;;1.67;1.00;;;;;;;;;;5052736;28;20056;-69
2022/01/21 01:27:58;;;;;;;1.77;1.10;;;;;;;;;;5054614;28;20032;-71
2022/01/21 01:30:26;;;;;;;1.17;0.77;;;;;;;;;;5055233;28;20033;-71
2022/01/21 01:32:55;;;;;;;2.45;1.00;;;;;;;;;;5054701;28;20017;-69
2022/01/21 01:35:21;;;;;;;1.45;0.80;;;;;;;;;;5055131;28;20028;-69
2022/01/21 01:40:21;;;;;;;1.75;0.90;;;;;;;;;;5035916;28;20492;-69
2022/01/21 01:49:27;;;;;;;1.30;0.98;;;;;;;;;;5053903;28;20079;-69
2022/01/21 01:51:06;;;;;;;1.27;1.00;;;;;;;;;;5053839;28;20025;-69
2022/01/21 01:53:37;;;;;;;1.33;1.05;;;;;;;;;;5038487;28;20017;-69
2022/01/21 01:56:06;;;;;;;1.55;0.98;;;;;;;;;;5034042;28;20100;-69
2022/01/21 01:58:36;;;;;;;1.20;0.88;;;;;;;;;;5033507;28;20041;-69
2022/01/21 02:01:02;;;;;;;1.27;0.65;;;;;;;;;;5034465;28;20029;-70
2022/01/21 02:03:28;;;;;;;1.58;0.80;;;;;;;;;;5034489;28;20025;-70
2022/01/21 02:05:55;;;;;;;1.70;0.85;;;;;;;;;;5034856;28;20550;-70
2022/01/21 02:08:21;;;;;;;1.45;0.70;;;;;;;;;;5036963;28;20036;-71
2022/01/21 02:10:47;;;;;;;1.23;0.85;;;;;;;;;;5051225;28;20029;-71
2022/01/21 02:13:25;;;;;;;1.33;0.80;;;;;;;;;;5035056;28;20032;-71
2022/01/21 02:16:01;;;;;;;0.90;0.70;;;;;;;;;;5040849;28;20094;-71
2022/01/21 02:21:40;;;;;;;1.58;0.85;;;;;;;;;;5054505;28;20106;-71
2022/01/21 02:24:10;;;;;;;1.40;0.70;;;;;;;;;;5054180;28;20100;-71
2022/01/21 02:26:36;;;;;;;1.35;0.90;;;;;;;;;;5054125;28;20108;-71
2022/01/21 02:29:05;;;;;;;1.83;0.85;;;;;;;;;;5053904;28;20029;-71
2022/01/21 02:31:31;;;;;;;1.95;0.88;;;;;;;;;;5053443;28;20017;-71
2022/01/21 02:33:58;;;;;;;1.55;0.68;;;;;;;;;;5053874;28;20373;-71
2022/01/21 02:36:24;;;;;;;1.27;0.70;;;;;;;;;;5054355;28;20381;-71
2022/01/21 02:38:50;;;;;;;1.25;0.70;;;;;;;;;;5053770;28;20488;-71
2022/01/21 02:41:17;;;;;;;2.97;1.02;;;;;;;;;;5053538;28;20016;-72
2022/01/21 02:43:43;;;;;;;1.42;0.80;;;;;;;;;;5053661;28;20025;-71
2022/01/21 02:46:10;;;;;;;2.13;0.98;;;;;;;;;;5054275;28;20033;-71
2022/01/21 02:48:39;;;;;;;2.70;0.95;;;;;;;;;;5054135;28;20108;-71
2022/01/21 02:51:07;;;;;;;1.70;1.00;;;;;;;;;;5052999;28;20064;-71
2022/01/21 02:54:17;;;;;;;0.93;0.65;;;;;;;;;;5038255;28;20033;-71
2022/01/21 02:56:24;;;;;;;0.85;0.60;;;;;;;;;;5036329;28;20037;-71
2022/01/21 02:58:50;;;;;;;2.00;0.90;;;;;;;;;;5034076;28;20037;-71
2022/01/21 03:01:17;;;;;;;1.30;0.85;;;;;;;;;;5034363;28;20031;-71
2022/01/21 03:03:44;;;;;;;1.63;0.90;;;;;;;;;;5033113;28;20025;-71
2022/01/21 03:06:10;;;;;;;1.48;0.80;;;;;;;;;;5033010;28;20040;-72
2022/01/21 03:08:36;;;;;;;0.80;0.50;;;;;;;;;;5033288;28;20025;-71
2022/01/21 03:11:03;;;;;;;1.23;0.80;;;;;;;;;;5034158;28;20026;-71
2022/01/21 03:13:29;;;;;;;1.02;0.70;;;;;;;;;;5032720;28;20104;-71
2022/01/21 03:15:55;;;;;;;2.03;0.85;;;;;;;;;;5041870;28;20051;-71
2022/01/21 03:18:21;;;;;;;1.00;0.70;;;;;;;;;;5053580;28;20488;-71
2022/01/21 03:20:48;;;;;;;1.40;0.70;;;;;;;;;;5052296;28;20029;-71
2022/01/21 03:23:17;;;;;;;1.15;0.60;;;;;;;;;;5053303;28;20023;-71
2022/01/21 03:25:44;;;;;;;1.75;0.85;;;;;;;;;;5053722;28;20492;-71
2022/01/21 03:28:11;;;;;;;1.98;0.93;;;;;;;;;;5053784;28;20049;-71
2022/01/21 03:30:37;;;;;;;2.10;0.80;;;;;;;;;;5054100;28;20083;-71
2022/01/21 03:33:04;;;;;;;1.38;0.70;;;;;;;;;;5054047;28;20028;-71
2022/01/21 03:35:30;;;;;;;1.73;0.75;;;;;;;;;;5053812;28;20129;-71
2022/01/21 03:37:56;;;;;;;1.27;0.60;;;;;;;;;;5054239;28;20451;-71
2022/01/21 03:40:23;;;;;;;1.40;0.70;;;;;;;;;;5054066;28;20028;-71
2022/01/21 03:42:49;;;;;;;1.75;0.75;;;;;;;;;;5053814;28;20029;-71
2022/01/21 03:45:15;;;;;;;1.13;0.70;;;;;;;;;;5053728;28;20078;-71
2022/01/21 03:47:42;;;;;;;1.05;0.63;;;;;;;;;;5052226;28;20108;-71
2022/01/21 03:50:19;;;;;;;1.05;0.50;;;;;;;;;;5053578;28;20415;-71
2022/01/21 03:52:45;;;;;;;2.28;0.90;;;;;;;;;;5053586;28;20429;-71
2022/01/21 03:55:11;;;;;;;1.42;0.68;;;;;;;;;;5052926;28;20032;-71
2022/01/21 03:57:37;;;;;;;1.35;0.80;;;;;;;;;;5053214;28;20040;-71
2022/01/21 04:00:05;;;;;;;1.35;0.70;;;;;;;;;;5053049;28;20033;-71
2022/01/21 04:02:31;;;;;;;1.45;0.80;;;;;;;;;;5053236;28;20026;-71
2022/01/21 04:04:57;;;;;;;1.13;0.70;;;;;;;;;;5052767;28;20033;-71
2022/01/21 04:07:23;;;;;;;0.85;0.70;;;;;;;;;;5057047;28;20024;-71
2022/01/21 04:09:50;;;;;;;0.85;0.60;;;;;;;;;;5057214;28;20036;-71
2022/01/21 04:12:16;;;;;;;1.75;0.60;;;;;;;;;;5057004;28;20028;-71
2022/01/21 04:14:42;;;;;;;1.35;0.75;;;;;;;;;;5056743;28;20025;-71
2022/01/21 04:17:08;;;;;;;1.08;0.70;;;;;;;;;;5038906;28;20053;-71
2022/01/21 04:19:34;;;;;;;1.30;0.75;;;;;;;;;;5037203;28;20033;-71
2022/01/21 04:22:00;;;;;;;1.15;0.52;;;;;;;;;;5036812;28;20026;-71
2022/01/21 04:24:26;;;;;;;0.95;0.70;;;;;;;;;;5037053;28;20057;-72
2022/01/21 04:26:53;;;;;;;1.95;0.65;;;;;;;;;;5035638;28;20025;-71
2022/01/21 04:29:19;;;;;;;1.13;0.70;;;;;;;;;;5035404;28;20489;-71
2022/01/21 04:31:45;;;;;;;0.75;0.47;;;;;;;;;;5036506;28;20026;-71
2022/01/21 04:34:11;;;;;;;0.65;0.52;;;;;;;;;;5037116;28;20036;-71
2022/01/21 04:36:37;;;;;;;1.15;0.70;;;;;;;;;;5036715;28;20397;-71
2022/01/21 04:39:06;;;;;;;1.13;0.80;;;;;;;;;;5036818;28;20025;-71
2022/01/21 04:49:37;;;;;;;1.30;0.50;;;;;;;;;;5056336;28;20122;-71
2022/01/21 04:52:04;;;;;;;0.77;0.50;;;;;;;;;;5053483;28;20029;-71
2022/01/21 04:54:31;;;;;;;1.13;0.55;;;;;;;;;;5036643;28;20120;-71
2022/01/21 04:56:57;;;;;;;0.80;0.57;;;;;;;;;;5036436;28;20105;-71
2022/01/21 04:59:23;;;;;;;0.60;0.50;;;;;;;;;;5036506;28;20069;-71
2022/01/21 05:01:50;;;;;;;1.38;0.50;;;;;;;;;;5034768;28;20028;-71
2022/01/21 05:04:17;;;;;;;1.10;0.60;;;;;;;;;;5036538;28;20029;-71
2022/01/21 05:06:44;;;;;;;0.80;0.60;;;;;;;;;;5036921;28;20032;-71
2022/01/21 05:09:10;;;;;;;1.17;0.70;;;;;;;;;;5036762;28;20065;-71
2022/01/21 05:11:38;;;;;;;0.40;0.40;;;;;;;;;;5035799;28;20026;-71
2022/01/21 05:17:03;;;;;;;1.88;0.50;;;;;;;;;;5058902;28;20108;-71
2022/01/21 05:19:30;;;;;;;1.85;0.75;;;;;;;;;;5055932;28;20489;-71
2022/01/21 05:21:56;;;;;;;0.60;0.40;;;;;;;;;;5055410;28;20029;-71
2022/01/21 05:24:22;;;;;;;1.23;0.60;;;;;;;;;;5055561;28;20036;-71
2022/01/21 05:26:58;;;;;;;1.15;0.50;;;;;;;;;;5055829;28;20029;-71
2022/01/21 05:29:28;;;;;;;1.75;0.40;;;;;;;;;;5056118;28;20025;-71
2022/01/21 05:31:54;;;;;;;1.60;0.60;;;;;;;;;;5055526;28;20104;-74
2022/01/21 05:34:20;;;;;;;0.80;0.50;;;;;;;;;;5054358;28;20032;-73
2022/01/21 05:36:46;;;;;;;1.15;0.40;;;;;;;;;;5055681;28;20396;-73
2022/01/21 05:39:13;;;;;;;0.60;0.50;;;;;;;;;;5055963;28;20029;-73
2022/01/21 05:41:40;;;;;;;1.17;0.60;;;;;;;;;;5047246;28;20061;-73
2022/01/21 05:44:18;;;;;;;0.75;0.40;;;;;;;;;;5035855;28;20029;-73
2022/01/21 05:46:55;;;;;;;0.80;0.40;;;;;;;;;;5034443;28;20026;-73
2022/01/21 05:49:22;;;;;;;0.80;0.30;;;;;;;;;;5035542;28;20029;-73
2022/01/21 05:51:48;;;;;;;1.63;0.55;;;;;;;;;;5035324;28;20033;-73
2022/01/21 05:54:14;;;;;;;0.52;0.40;;;;;;;;;;5054372;28;20445;-73
2022/01/21 05:56:41;;;;;;;1.00;0.47;;;;;;;;;;5055164;28;20099;-73
2022/01/21 05:59:07;;;;;;;1.15;0.47;;;;;;;;;;5055225;28;20458;-73
2022/01/21 06:01:34;;;;;;;1.17;0.60;;;;;;;;;;5054513;28;20040;-73
2022/01/21 06:04:01;;;;;;;0.85;0.50;;;;;;;;;;5055296;28;20079;-73
2022/01/21 06:06:27;;;;;;;1.48;0.50;;;;;;;;;;5054960;28;20021;-73
2022/01/21 06:08:53;;;;;;;1.15;0.50;;;;;;;;;;5055593;28;20500;-73
2022/01/21 06:11:19;;;;;;;1.42;0.57;;;;;;;;;;5054861;28;20439;-73
2022/01/21 06:13:48;;;;;;;2.33;0.63;;;;;;;;;;5055239;28;20025;-73
2022/01/21 06:16:15;;;;;;;1.83;0.47;;;;;;;;;;5055519;28;20029;-73
2022/01/21 06:18:41;;;;;;;2.05;0.55;;;;;;;;;;5055342;28;20377;-73
2022/01/21 06:21:07;;;;;;;0.52;0.43;;;;;;;;;;5053590;28;20071;-73
2022/01/21 06:23:33;;;;;;;1.63;0.57;;;;;;;;;;5054575;28;20025;-73
2022/01/21 06:26:00;;;;;;;0.60;0.40;;;;;;;;;;5055156;28;20033;-74
2022/01/21 06:28:26;;;;;;;1.83;0.68;;;;;;;;;;5053112;28;20398;-74
2022/01/21 06:30:52;;;;;;;0.85;0.50;;;;;;;;;;5055066;28;20041;-73
2022/01/21 06:33:20;;;;;;;0.75;0.40;;;;;;;;;;5055319;28;20032;-73
2022/01/21 06:35:46;;;;;;;0.50;0.38;;;;;;;;;;5054469;28;20017;-73
2022/01/21 06:38:13;;;;;;;2.33;0.65;;;;;;;;;;5054778;28;20013;-73
2022/01/21 06:40:39;;;;;;;0.65;0.50;;;;;;;;;;5054567;28;20100;-73
2022/01/21 06:43:05;;;;;;;0.98;0.60;;;;;;;;;;5034639;28;20141;-73
2022/01/21 06:45:31;;;;;;;0.45;0.30;;;;;;;;;;5034723;28;20022;-73
2022/01/21 06:48:02;;;;;;;0.77;0.40;;;;;;;;;;5034281;28;20025;-73
2022/01/21 06:50:29;;;;;;;1.13;0.43;;;;;;;;;;5033482;28;20025;-73
2022/01/21 06:52:55;;;;;;;1.55;0.50;;;;;;;;;;5043748;28;20021;-73
2022/01/21 06:55:22;;;;;;;2.35;0.80;;;;;;;;;;5054498;28;20033;-73
2022/01/21 06:57:48;;;;;;;0.65;0.38;;;;;;;;;;5054111;28;20128;-73
2022/01/21 07:00:18;;;;;;;1.05;0.60;;;;;;;;;;5054376;28;20132;-73
2022/01/21 07:02:44;;;;;;;1.25;0.65;;;;;;;;;;5054202;28;20029;-73
2022/01/21 07:05:10;;;;;;;1.00;0.40;;;;;;;;;;5054786;28;20059;-73
2022/01/21 07:07:36;;;;;;;0.50;0.40;;;;;;;;;;5054110;28;20021;-73
2022/01/21 07:10:05;;;;;;;0.65;0.43;;;;;;;;;;5054576;28;20412;-73
2022/01/21 07:12:31;;;;;;;1.45;0.50;;;;;;;;;;5053739;28;20083;-73
2022/01/21 07:14:57;;;;;;;0.73;0.43;;;;;;;;;;5054267;28;20167;-73
2022/01/21 07:17:23;;;;;;;1.38;0.50;;;;;;;;;;5032747;28;20034;-73
2022/01/21 07:19:49;;;;;;;0.82;0.60;;;;;;;;;;5032955;28;20033;-73
2022/01/21 07:22:16;;;;;;;1.48;0.70;;;;;;;;;;5033266;28;20026;-73
2022/01/21 07:24:43;;;;;;;1.70;0.60;;;;;;;;;;5033085;28;20037;-73
2022/01/21 07:27:09;;;;;;;0.88;0.65;;;;;;;;;;5031930;28;20021;-73
2022/01/21 07:29:35;;;;;;;1.00;0.35;;;;;;;;;;5031791;28;20033;-73
2022/01/21 07:32:01;;;;;;;0.75;0.50;;;;;;;;;;5032314;28;20022;-73
2022/01/21 07:34:27;;;;;;;0.73;0.43;;;;;;;;;;5033715;28;20025;-73
2022/01/21 07:36:54;;;;;;;0.40;0.35;;;;;;;;;;5051760;28;20374;-73
2022/01/21 07:39:20;;;;;;;0.93;0.50;;;;;;;;;;5053144;28;20029;-73
2022/01/21 07:41:46;;;;;;;3.10;0.60;;;;;;;;;;5054711;28;20025;-73
2022/01/21 07:44:13;;;;;;;1.38;0.50;;;;;;;;;;5056214;28;20080;-73
2022/01/21 07:46:39;;;;;;;1.30;0.43;;;;;;;;;;5056614;28;20420;-73
2022/01/21 07:49:06;;;;;;;1.38;0.50;;;;;;;;;;5055448;28;20033;-73
2022/01/21 07:51:32;;;;;;;1.40;0.50;;;;;;;;;;5056073;28;20523;-73
2022/01/21 07:53:58;;;;;;;0.80;0.43;;;;;;;;;;5036943;28;20053;-73
2022/01/21 07:56:24;;;;;;;2.35;0.77;;;;;;;;;;5038131;28;20037;-73
2022/01/21 07:58:52;;;;;;;1.52;0.68;;;;;;;;;;5036707;28;20104;-73
2022/01/21 08:01:18;;;;;;;3.50;0.77;;;;;;;;;;5052882;28;20029;-74
2022/01/21 08:03:44;;;;;;;1.88;0.90;;;;;;;;;;5053618;28;20131;-73
2022/01/21 08:06:10;;;;;;;2.35;0.60;;;;;;;;;;5052833;28;20052;-74
2022/01/21 08:08:36;;;;;;;2.65;0.50;;;;;;;;;;5052486;28;20037;-73
2022/01/21 08:11:03;;;;;;;1.75;0.60;;;;;;;;;;5053543;28;20032;-73
2022/01/21 08:13:29;;;;;;;1.38;0.65;;;;;;;;;;5045570;28;20600;-73
2022/01/21 08:15:56;;;;;;;1.52;0.70;;;;;;;;;;5038326;28;20295;-74
2022/01/21 08:18:22;;;;;;;2.88;0.90;;;;;;;;;;5032015;28;20420;-74
2022/01/21 08:20:49;;;;;;;2.92;0.98;;;;;;;;;;5036118;28;20033;-73
2022/01/21 08:23:15;;;;;;;2.10;0.75;;;;;;;;;;5049615;28;20025;-73
2022/01/21 08:25:41;;;;;;;2.08;0.60;;;;;;;;;;5051313;28;20052;-74
2022/01/21 08:28:07;;;;;;;3.83;0.70;;;;;;;;;;5040689;28;20036;-73
2022/01/21 08:30:34;;;;;;;1.08;0.80;;;;;;;;;;5048961;28;20025;-73
2022/01/21 08:33:01;;;;;;;2.75;0.80;;;;;;;;;;5030787;28;20510;-73
2022/01/21 08:35:27;;;;;;;3.33;0.82;;;;;;;;;;5039096;28;20021;-73
2022/01/21 08:37:53;;;;;;;3.63;0.80;;;;;;;;;;5049689;28;20091;-73
2022/01/21 08:40:23;;;;;;;1.67;0.60;;;;;;;;;;5050025;28;20025;-73
2022/01/21 08:42:49;;;;;;;1.77;0.90;;;;;;;;;;5048767;28;20021;-73
2022/01/21 08:45:16;;;;;;;2.72;0.80;;;;;;;;;;5047736;28;20036;-73
2022/01/21 08:47:42;;;;;;;1.63;0.73;;;;;;;;;;5041138;28;20034;-73
2022/01/21 08:50:13;;;;;;;2.78;0.90;;;;;;;;;;5051420;28;20029;-73
2022/01/21 08:52:41;;;;;;;2.50;0.82;;;;;;;;;;5046041;28;20136;-73
2022/01/21 08:55:11;;;;;;;2.83;0.70;;;;;;;;;;5055910;28;20082;-73
2022/01/21 08:57:40;;;;;;;4.30;0.90;;;;;;;;;;5070712;28;20024;-73
2022/01/21 09:00:08;;;;;;;2.63;0.80;;;;;;;;;;5068614;28;20078;-73
2022/01/21 09:02:36;;;;;;;2.47;0.68;;;;;;;;;;5029577;28;20062;-73
2022/01/21 09:05:02;;;;;;;2.05;0.77;;;;;;;;;;5029069;28;20028;-73
2022/01/21 09:07:28;;;;;;;2.33;0.82;;;;;;;;;;5027993;28;20037;-73
2022/01/21 09:09:54;;;;;;;1.77;0.77;;;;;;;;;;5040835;28;20136;-73
2022/01/21 09:12:20;;;;;;;1.42;0.70;;;;;;;;;;5045950;28;20028;-73
2022/01/21 09:14:47;;;;;;;2.88;0.90;;;;;;;;;;5039205;28;20031;-73
2022/01/21 09:17:13;;;;;;;1.60;0.90;;;;;;;;;;5029967;28;20022;-73
2022/01/21 09:19:39;;;;;;;3.88;0.90;;;;;;;;;;5028639;28;20025;-73
2022/01/21 09:22:06;;;;;;;1.33;0.60;;;;;;;;;;5047739;28;20135;-73
2022/01/21 09:24:33;;;;;;;2.72;0.80;;;;;;;;;;5050596;28;20028;-73
2022/01/21 09:27:03;;;;;;;2.40;0.65;;;;;;;;;;5053094;28;20155;-73
2022/01/21 09:29:29;;;;;;;3.08;0.80;;;;;;;;;;5064400;28;20063;-73
2022/01/21 09:31:55;;;;;;;2.45;0.95;;;;;;;;;;5049959;28;20044;-74
2022/01/21 09:34:23;;;;;;;1.42;0.70;;;;;;;;;;5049693;28;20021;-73
2022/01/21 09:36:49;;;;;;;2.78;1.08;;;;;;;;;;5049637;28;20025;-73
2022/01/21 09:39:15;;;;;;;1.25;0.68;;;;;;;;;;5046761;28;20037;-74
2022/01/21 09:41:43;;;;;;;3.65;1.00;;;;;;;;;;5040572;28;20033;-73
2022/01/21 09:44:13;;;;;;;1.52;0.77;;;;;;;;;;5029785;28;20026;-73
2022/01/21 09:46:44;;;;;;;1.85;0.80;;;;;;;;;;5033947;28;20108;-73
2022/01/21 09:51:51;;;;;;;3.08;1.00;;;;;;;;;;5044624;28;20026;-73
2022/01/21 09:54:18;;;;;;;3.03;0.80;;;;;;;;;;5037286;28;20009;-73
2022/01/21 09:56:45;;;;;;;3.17;0.95;;;;;;;;;;5051256;28;20029;-73
2022/01/21 09:59:12;;;;;;;1.70;1.00;;;;;;;;;;5053494;28;20088;-73
2022/01/21 10:01:38;;;;;;;4.18;1.08;;;;;;;;;;5055208;28;20025;-73
2022/01/21 10:04:05;;;;;;;2.08;0.98;;;;;;;;;;5030857;28;20033;-73
2022/01/21 10:06:32;;;;;;;1.58;0.80;;;;;;;;;;5032563;28;20021;-74
2022/01/21 10:08:59;;;;;;;2.15;0.90;;;;;;;;;;5041902;28;20034;-74
2022/01/21 10:11:25;;;;;;;1.38;0.70;;;;;;;;;;5039025;28;20025;-73
2022/01/21 10:13:52;;;;;;;1.45;0.80;;;;;;;;;;5032277;28;20021;-73
2022/01/21 10:16:18;;;;;;;1.42;0.80;;;;;;;;;;5048249;28;20028;-73
2022/01/21 10:19:05;;;;;;;2.45;0.90;;;;;;;;;;5048099;28;20027;-73
2022/01/21 10:21:32;;;;;;;1.55;1.00;;;;;;;;;;5054016;28;20060;-73
2022/01/21 10:24:06;;;;;;;1.77;0.95;;;;;;;;;;5044307;28;20044;-73
2022/01/21 10:26:33;;;;;;;2.17;1.00;;;;;;;;;;5035585;28;20040;-73
2022/01/21 10:28:59;;;;;;;2.22;0.93;;;;;;;;;;5052245;28;20033;-73
2022/01/21 10:31:27;;;;;;;1.98;0.85;;;;;;;;;;5041505;28;20033;-73
2022/01/21 10:33:56;;;;;;;2.13;0.90;;;;;;;;;;5063759;28;20021;-74
2022/01/21 10:36:27;;;;;;;1.67;0.70;;;;;;;;;;5047660;28;20119;-74
2022/01/21 10:38:58;;;;;;;2.25;1.17;;;;;;;;;;5045865;28;20037;-73
2022/01/21 10:41:29;;;;;;;3.63;1.15;;;;;;;;;;5032404;28;20028;-73
2022/01/21 10:44:04;;;;;;;1.90;0.85;;;;;;;;;;5037072;28;20029;-74
2022/01/21 10:46:31;;;;;;;2.63;0.80;;;;;;;;;;5032458;28;20057;-73
2022/01/21 10:49:09;;;;;;;2.30;0.80;;;;;;;;;;5035475;28;20044;-73
2022/01/21 10:51:36;;;;;;;3.45;0.80;;;;;;;;;;5029165;28;20111;-74
2022/01/21 10:54:35;;;;;;;1.92;1.10;;;;;;;;;;5045008;28;20048;-73
2022/01/21 10:57:04;;;;;;;2.15;1.10;;;;;;;;;;5032786;28;20030;-74
2022/01/21 10:59:50;;;;;;;2.72;1.00;;;;;;;;;;5030401;28;20037;-74
2022/01/21 11:02:30;;;;;;;1.73;0.80;;;;;;;;;;5029584;28;20112;-73
2022/01/21 11:04:59;;;;;;;2.08;1.20;;;;;;;;;;5039436;28;20091;-74
2022/01/21 11:08:07;;;;;;;1.60;1.00;;;;;;;;;;5040150;28;20029;-73
2022/01/21 11:10:33;;;;;;;2.28;0.90;;;;;;;;;;5033646;28;20600;-74
2022/01/21 11:13:00;;;;;;;1.48;0.80;;;;;;;;;;5035924;28;20774;-73
2022/01/21 11:15:37;;;;;;;1.60;0.90;;;;;;;;;;5020613;28;20129;-73
2022/01/21 11:18:06;;;;;;;1.17;0.80;;;;;;;;;;5029920;28;20100;-73
2022/01/21 11:20:38;;;;;;;1.77;0.85;;;;;;;;;;5043053;28;20627;-74
2022/01/21 11:23:05;;;;;;;1.25;0.65;;;;;;;;;;5045664;28;20685;-74
2022/01/21 11:25:49;;;;;;;1.30;0.65;;;;;;;;;;5044258;28;20033;-74
2022/01/21 11:28:17;;;;;;;3.13;0.98;;;;;;;;;;5044602;28;20029;-74
2022/01/21 11:30:43;;;;;;;2.67;0.88;;;;;;;;;;5028140;28;20029;-74
2022/01/21 11:33:10;;;;;;;1.42;1.05;;;;;;;;;;5029556;28;20032;-74
2022/01/21 11:35:36;;;;;;;4.40;0.95;;;;;;;;;;5027385;28;20057;-73
2022/01/21 11:38:06;;;;;;;1.58;0.95;;;;;;;;;;5064852;28;20024;-74
2022/01/21 11:40:33;;;;;;;0.85;0.75;;;;;;;;;;5050088;28;20112;-73
2022/01/21 11:42:59;;;;;;;1.65;0.88;;;;;;;;;;5045601;28;20029;-73
2022/01/21 11:48:49;;;;;;;2.33;1.10;;;;;;;;;;5047074;28;20029;-73
2022/01/21 11:50:51;;;;;;;1.40;0.80;;;;;;;;;;5046503;28;20507;-74
2022/01/21 11:53:36;;;;;;;2.40;1.25;;;;;;;;;;5035920;28;20423;-74
2022/01/21 11:56:06;;;;;;;3.40;1.10;;;;;;;;;;5042110;28;20100;-74
2022/01/21 11:58:33;;;;;;;3.22;1.17;;;;;;;;;;5039500;28;20132;-74
2022/01/21 12:01:05;;;;;;;3.17;1.50;;;;;;;;;;5048588;28;20156;-73
2022/01/21 12:03:51;;;;;;;3.50;1.08;;;;;;;;;;5041307;28;20039;-73
2022/01/21 12:06:30;;;;;;;4.63;1.83;;;;;;;;;;5046953;28;20032;-74
2022/01/21 12:08:57;;;;;;;5.72;1.55;;;;;;;;;;5049483;28;20035;-74
2022/01/21 12:11:31;;;;;;;2.92;2.03;;;;;;;;;;5038759;28;20033;-74
2022/01/21 12:13:58;;;;;;;4.15;2.05;;;;;;;;;;5042808;28;20066;-74
2022/01/21 12:16:47;;;;;;;8.35;1.98;;;;;;;;;;5038843;28;20037;-73
2022/01/21 12:19:20;;;;;;;4.03;1.77;;;;;;;;;;5038400;28;20124;-73
2022/01/21 12:21:48;;;;;;;3.83;2.10;;;;;;;;;;5048460;28;20112;-73
2022/01/21 12:24:16;;;;;;;3.88;1.33;;;;;;;;;;5037439;28;20033;-74
2022/01/21 12:26:59;;;;;;;5.60;1.67;;;;;;;;;;5042646;28;20502;-75
2022/01/21 12:29:26;;;;;;;3.77;2.20;;;;;;;;;;5047409;28;20111;-74
2022/01/21 12:31:59;;;;;;;7.22;2.05;;;;;;;;;;5052939;28;20025;-73
2022/01/21 12:34:25;;;;;;;4.18;2.70;;;;;;;;;;5047307;28;20037;-74
2022/01/21 12:36:54;;;;;;;4.95;3.50;;;;;;;;;;5046357;28;20037;-74
2022/01/21 12:39:47;;;;;;;4.45;3.03;;;;;;;;;;5047064;28;20100;-74
2022/01/21 12:42:27;;;;;;;4.43;2.57;;;;;;;;;;5041202;28;20409;-74
2022/01/21 12:44:54;;;;;;;3.45;2.25;;;;;;;;;;5039499;28;20197;-74
2022/01/21 12:47:41;;;;;;;3.92;2.42;;;;;;;;;;5039906;28;20475;-74
2022/01/21 12:50:07;;;;;;;8.57;2.30;;;;;;;;;;5044155;28;20025;-73
2022/01/21 12:52:45;;;;;;;7.78;2.17;;;;;;;;;;5041695;28;20029;-73
2022/01/21 12:58:05;;;;;;;5.38;2.83;;;;;;;;;;5042224;28;20136;-72
2022/01/21 13:00:31;;;;;;;5.15;2.00;;;;;;;;;;5041631;28;20025;-73
2022/01/21 13:03:01;;;;;;;4.75;2.80;;;;;;;;;;5048138;28;20021;-72
2022/01/21 13:05:32;;;;;;;4.45;2.42;;;;;;;;;;5044347;28;20025;-72
2022/01/21 13:08:10;;;;;;;5.03;2.42;;;;;;;;;;5048860;28;20029;-72
2022/01/21 13:10:38;;;;;;;3.42;2.03;;;;;;;;;;5038857;28;20025;-72
2022/01/21 13:15:41;;;;;;;4.57;2.13;;;;;;;;;;5043690;28;20039;-72
2022/01/21 13:18:09;;;;;;;4.85;1.90;;;;;;;;;;5041190;28;20088;-73
2022/01/21 13:20:39;;;;;;;4.22;1.83;;;;;;;;;;5034092;28;20048;-72
2022/01/21 13:23:05;;;;;;;2.85;1.80;;;;;;;;;;5042112;28;20041;-72
2022/01/21 13:25:32;;;;;;;2.75;1.80;;;;;;;;;;5044762;28;20531;-72
2022/01/21 13:28:00;;;;;;;5.32;1.95;;;;;;;;;;5046665;28;20029;-72
2022/01/21 13:30:28;;;;;;;3.60;1.55;;;;;;;;;;5038930;28;20112;-72
2022/01/21 13:33:05;;;;;;;2.47;1.60;;;;;;;;;;5045997;28;20100;-73
2022/01/21 13:35:32;;;;;;;4.75;1.65;;;;;;;;;;5043708;28;20537;-72
2022/01/21 13:38:15;;;;;;;2.10;1.30;;;;;;;;;;5039182;28;20021;-72
2022/01/21 13:41:11;;;;;;;2.15;1.42;;;;;;;;;;5042006;28;20100;-73
2022/01/21 13:43:37;;;;;;;3.13;1.83;;;;;;;;;;5039060;28;20041;-72
2022/01/21 13:46:04;;;;;;;1.88;1.27;;;;;;;;;;5047341;28;20124;-72
2022/01/21 13:48:32;;;;;;;2.55;1.50;;;;;;;;;;5041891;28;20041;-72
2022/01/21 13:51:01;;;;;;;2.90;1.75;;;;;;;;;;5038460;28;20026;-72
2022/01/21 13:53:27;;;;;;;2.08;1.67;;;;;;;;;;5037505;28;20028;-72
2022/01/21 13:55:57;;;;;;;4.70;1.60;;;;;;;;;;5047098;28;20067;-72
2022/01/21 13:58:25;;;;;;;3.15;1.33;;;;;;;;;;5037750;28;20049;-72
2022/01/21 14:00:52;;;;;;;2.80;1.40;;;;;;;;;;5035991;28;20078;-72
2022/01/21 14:03:24;;;;;;;4.32;1.60;;;;;;;;;;5034999;28;20091;-73
2022/01/21 14:05:50;;;;;;;3.08;1.70;;;;;;;;;;5038342;28;20021;-73
2022/01/21 14:08:19;;;;;;;3.05;1.42;;;;;;;;;;5037913;28;20037;-73
2022/01/21 14:10:45;;;;;;;4.15;1.50;;;;;;;;;;5041883;28;20645;-73
2022/01/21 14:13:11;;;;;;;1.63;1.13;;;;;;;;;;5043846;28;20625;-73
2022/01/21 14:15:37;;;;;;;3.20;1.33;;;;;;;;;;5035588;28;20022;-73
2022/01/21 14:18:04;;;;;;;4.35;1.70;;;;;;;;;;5035881;28;20028;-73
2022/01/21 14:20:32;;;;;;;2.35;1.27;;;;;;;;;;5042089;28;20538;-73
2022/01/21 14:22:58;;;;;;;2.70;1.50;;;;;;;;;;5053984;28;20048;-73
2022/01/21 14:25:24;;;;;;;4.05;1.55;;;;;;;;;;5042489;28;20049;-75
2022/01/21 14:27:51;;;;;;;2.28;1.33;;;;;;;;;;5046105;28;20029;-73
2022/01/21 14:30:19;;;;;;;1.75;1.20;;;;;;;;;;5046708;28;20021;-72
2022/01/21 14:32:52;;;;;;;2.03;1.30;;;;;;;;;;5037571;28;20631;-73
2022/01/21 14:35:25;;;;;;;5.85;1.20;;;;;;;;;;5045458;28;20025;-73
2022/01/21 14:37:52;;;;;;;3.28;1.60;;;;;;;;;;5038965;28;20036;-73
2022/01/21 14:40:23;;;;;;;2.45;1.40;;;;;;;;;;5034496;28;20604;-73
2022/01/21 14:42:49;;;;;;;2.13;1.45;;;;;;;;;;5029528;28;20623;-73
2022/01/21 14:45:17;;;;;;;1.30;1.02;;;;;;;;;;5045443;28;20030;-73
2022/01/21 14:47:44;;;;;;;2.65;1.42;;;;;;;;;;5044538;28;20033;-73
2022/01/21 14:50:13;;;;;;;3.20;1.50;;;;;;;;;;5036357;28;20060;-72
2022/01/21 14:52:43;;;;;;;2.67;1.30;;;;;;;;;;5054872;28;20025;-73
2022/01/21 14:55:15;;;;;;;1.80;1.20;;;;;;;;;;5034711;28;20029;-73
2022/01/21 14:57:47;;;;;;;1.80;1.10;;;;;;;;;;5045343;28;20098;-73
2022/01/21 15:00:20;;;;;;;3.40;1.40;;;;;;;;;;5046376;28;20108;-73
2022/01/21 15:02:46;;;;;;;2.35;1.20;;;;;;;;;;5046072;28;20558;-73
2022/01/21 15:05:14;;;;;;;1.77;1.30;;;;;;;;;;5046805;28;20368;-73
2022/01/21 15:07:42;;;;;;;1.77;1.13;;;;;;;;;;5036577;28;20037;-73
2022/01/21 15:10:26;;;;;;;2.58;1.20;;;;;;;;;;5041491;28;20041;-73
2022/01/21 15:15:44;;;;;;;2.58;1.27;;;;;;;;;;5029591;28;20032;-73
2022/01/21 15:18:13;;;;;;;2.47;0.98;;;;;;;;;;5042803;28;20074;-73
2022/01/21 15:20:40;;;;;;;2.53;1.15;;;;;;;;;;5045209;28;20107;-73
2022/01/21 15:23:06;;;;;;;2.42;1.00;;;;;;;;;;5044886;28;20033;-73
2022/01/21 15:25:33;;;;;;;5.15;1.40;;;;;;;;;;5028917;28;20038;-72
2022/01/21 15:27:59;;;;;;;4.20;1.30;;;;;;;;;;5028367;28;20096;-73
2022/01/21 15:30:26;;;;;;;1.60;0.98;;;;;;;;;;5028100;28;20029;-73
2022/01/21 15:32:53;;;;;;;2.30;0.98;;;;;;;;;;5031789;28;20079;-73
2022/01/21 15:35:19;;;;;;;2.25;1.20;;;;;;;;;;5039081;28;20013;-73
2022/01/21 15:37:45;;;;;;;1.38;0.93;;;;;;;;;;5046544;28;20029;-73
2022/01/21 15:40:12;;;;;;;1.27;0.95;;;;;;;;;;5033878;28;20455;-73
2022/01/21 15:42:38;;;;;;;1.90;1.20;;;;;;;;;;5042703;28;20033;-73
2022/01/21 15:45:05;;;;;;;2.97;1.00;;;;;;;;;;5044849;28;20076;-73
2022/01/21 15:47:31;;;;;;;2.30;1.23;;;;;;;;;;5041232;28;20475;-73
2022/01/21 15:49:57;;;;;;;3.72;1.48;;;;;;;;;;5029493;28;20042;-73